createdAt,value
2023-04-19T00:01:34.005Z,97398.44
2023-04-19T00:06:54.673Z,97402.56
2023-04-19T00:12:15.395Z,97393.94
2023-04-19T00:17:36.928Z,97386.16
2023-04-19T00:22:59.178Z,97375.03
2023-04-19T00:28:19.976Z,97376.56
2023-04-19T00:33:40.679Z,97366.16
2023-04-19T00:39:01.482Z,97360.31
2023-04-19T00:44:22.335Z,97358.31
2023-04-19T00:49:43.771Z,97351.09
2023-04-19T00:55:05.646Z,97341.28
2023-04-19T01:00:26.730Z,97332.53
2023-04-19T01:05:48.651Z,97333.38
2023-04-19T01:11:09.449Z,97332.16
2023-04-19T01:16:31.296Z,97339.41
2023-04-19T01:21:52.893Z,97321.09
2023-04-19T01:27:14.309Z,97315.06
2023-04-19T01:32:35.164Z,97304.78
2023-04-19T01:37:56.567Z,97304.78
2023-04-19T01:43:18.724Z,97300.50
2023-04-19T01:48:39.543Z,97294.47
2023-04-19T01:54:00.479Z,97293.44
2023-04-19T01:59:21.466Z,97286.44
2023-04-19T02:04:42.198Z,97279.72
2023-04-19T02:10:03.222Z,97272.28
2023-04-19T02:15:24.156Z,97272.41
2023-04-19T02:20:44.682Z,97264.59
2023-04-19T02:26:05.832Z,97259.84
2023-04-19T02:31:26.855Z,97259.25
2023-04-19T02:36:47.662Z,97254.78
2023-04-19T02:42:08.196Z,97249.34
2023-04-19T02:47:28.934Z,97235.63
2023-04-19T02:52:49.922Z,97242.72
2023-04-19T02:58:11.726Z,97237.38
2023-04-19T03:03:38.833Z,97229.47
2023-04-19T03:08:59.622Z,97226.03
2023-04-19T03:14:21.285Z,97222.59
2023-04-19T03:19:42.062Z,97209.19
2023-04-19T03:25:04.518Z,97203.66
2023-04-19T03:30:25.908Z,97191.94
2023-04-19T03:35:47.100Z,97191.59
2023-04-19T03:41:24.065Z,97183.56
2023-04-19T03:47:04.739Z,97177.16
2023-04-19T03:52:32.238Z,97176.00
2023-04-19T03:57:53.613Z,97176.00
2023-04-19T04:03:24.660Z,97163.81
2023-04-19T04:08:47.237Z,97161.56
2023-04-19T04:14:08.073Z,97171.47
2023-04-19T04:19:31.684Z,97162.38
2023-04-19T04:24:54.480Z,97171.72
2023-04-19T04:30:20.365Z,97168.53
2023-04-19T04:35:42.097Z,97165.47
2023-04-19T04:41:08.814Z,97159.53
2023-04-19T04:46:29.504Z,97156.22
2023-04-19T04:51:50.586Z,97148.78
2023-04-19T04:57:11.251Z,97151.25
2023-04-19T05:02:31.995Z,97146.31
2023-04-19T05:07:53.111Z,97141.69
2023-04-19T05:13:14.597Z,97142.72
2023-04-19T05:18:35.831Z,97136.59
2023-04-19T05:23:57.143Z,97128.91
2023-04-19T05:29:17.966Z,97128.06
2023-04-19T05:34:44.285Z,97119.84
2023-04-19T05:40:11.885Z,97126.78
2023-04-19T05:45:32.955Z,97126.53
2023-04-19T05:50:55.164Z,97126.97
2023-04-19T05:56:34.851Z,97132.41
2023-04-19T06:01:58.971Z,97119.66
2023-04-19T06:07:30.876Z,97132.88
2023-04-19T06:12:55.160Z,97134.72
2023-04-19T06:18:19.528Z,97142.22
2023-04-19T06:23:40.844Z,97139.53
2023-04-19T06:29:01.548Z,97142.72
2023-04-19T06:34:22.182Z,97133.09
2023-04-19T06:39:42.848Z,97131.66
2023-04-19T06:45:04.413Z,97120.50
2023-04-19T06:50:25.413Z,97125.84
2023-04-19T06:55:46.746Z,97134.22
2023-04-19T07:01:07.696Z,97130.06
2023-04-19T07:06:29.734Z,97131.09
2023-04-19T07:11:51.445Z,97116.59
2023-04-19T07:17:13.889Z,97122.94
2023-04-19T07:22:34.641Z,97121.19
2023-04-19T07:27:56.505Z,97117.50
2023-04-19T07:33:17.574Z,97114.34
2023-04-19T07:38:38.682Z,97103.63
2023-04-19T07:43:59.710Z,97103.88
2023-04-19T07:49:20.972Z,97097.72
2023-04-19T07:54:41.866Z,97098.66
2023-04-19T08:00:02.629Z,97093.25
2023-04-19T08:05:35.402Z,97087.88
2023-04-19T08:10:56.063Z,97082.59
2023-04-19T08:16:40.324Z,97071.44
2023-04-19T08:21:57.434Z,97082.31
2023-04-19T08:27:18.684Z,97079.59
2023-04-19T08:32:39.439Z,97075.69
2023-04-19T08:38:00.874Z,97076.63
2023-04-19T08:43:25.562Z,97061.78
2023-04-19T08:48:46.936Z,97053.22
2023-04-19T08:54:08.424Z,97049.63
2023-04-19T08:59:30.920Z,97039.38
2023-04-19T09:04:52.453Z,97039.16
2023-04-19T09:10:18.823Z,97026.09
2023-04-19T09:15:43.705Z,97021.69
2023-04-19T09:21:04.627Z,97013.94
2023-04-19T09:26:29.548Z,97016.41
2023-04-19T09:31:59.015Z,97015.38
2023-04-19T09:37:34.997Z,97006.38
2023-04-19T09:48:26.529Z,96989.34
2023-04-19T09:53:49.259Z,96985.66
2023-04-19T09:59:20.363Z,96978.28
2023-04-19T10:04:59.454Z,96987.25
2023-04-19T10:10:30.189Z,96988.91
2023-04-19T10:16:15.497Z,96994.41
2023-04-19T10:21:42.249Z,96983.94
2023-04-19T10:27:11.566Z,96980.28
2023-04-19T10:32:59.750Z,96978.31
2023-04-19T10:38:21.317Z,96968.97
2023-04-19T10:43:46.252Z,96970.97
2023-04-19T10:49:09.676Z,96965.72
2023-04-19T10:54:33.021Z,96966.31
2023-04-19T11:00:21.550Z,96953.69
2023-04-19T11:06:20.052Z,96966.38
2023-04-19T11:11:40.767Z,96948.31
2023-04-19T11:17:05.037Z,96950.50
2023-04-19T11:22:33.083Z,96955.00
2023-04-19T11:27:54.371Z,96956.38
2023-04-19T11:33:15.307Z,96962.44
2023-04-19T11:38:35.905Z,96966.28
2023-04-19T11:43:56.619Z,96974.75
2023-04-19T11:49:28.846Z,96972.81
2023-04-19T11:54:51.492Z,96977.28
2023-04-19T12:00:12.803Z,96971.69
2023-04-19T12:05:33.903Z,96980.69
2023-04-19T12:10:59.129Z,96982.59
2023-04-19T12:16:28.163Z,96972.56
2023-04-19T12:21:48.765Z,96983.75
2023-04-19T12:27:10.708Z,96988.56
2023-04-19T12:32:31.674Z,96992.19
2023-04-19T12:37:57.007Z,96997.75
2023-04-19T12:43:17.809Z,97000.63
2023-04-19T12:48:38.627Z,96995.78
2023-04-19T12:53:59.935Z,97003.03
2023-04-19T12:59:22.149Z,97007.53
2023-04-19T13:04:43.077Z,97011.19
2023-04-19T13:10:04.340Z,97001.63
2023-04-19T13:15:25.720Z,97012.28
2023-04-19T13:20:47.116Z,97003.53
2023-04-19T13:26:08.166Z,97003.28
2023-04-19T13:31:29.401Z,96997.41
2023-04-19T13:36:50.185Z,96994.91
2023-04-19T13:42:11.053Z,96994.00
2023-04-19T13:47:31.834Z,96993.25
2023-04-19T13:52:52.749Z,96989.47
2023-04-19T13:58:13.436Z,96981.56
2023-04-19T14:03:34.374Z,96972.56
2023-04-19T14:08:55.322Z,96966.66
2023-04-19T14:14:16.185Z,96974.28
2023-04-19T14:19:37.981Z,96972.25
2023-04-19T14:24:58.931Z,96963.53
2023-04-19T14:30:20.817Z,96970.25
2023-04-19T14:35:41.985Z,96964.75
2023-04-19T14:41:03.502Z,96952.22
2023-04-19T14:46:24.710Z,96945.50
2023-04-19T14:51:45.320Z,96945.97
2023-04-19T14:57:06.197Z,96937.44
2023-04-19T15:02:27.936Z,96943.34
2023-04-19T15:07:48.704Z,96935.03
2023-04-19T15:13:09.492Z,96938.59
2023-04-19T15:18:30.446Z,96930.56
2023-04-19T15:23:51.291Z,96933.50
2023-04-19T15:29:11.998Z,96934.09
2023-04-19T15:34:32.685Z,96931.50
2023-04-19T15:39:53.423Z,96917.94
2023-04-19T15:45:14.144Z,96919.59
2023-04-19T15:50:39.244Z,96913.66
2023-04-19T15:55:59.952Z,96923.44
2023-04-19T16:01:21.829Z,96910.19
2023-04-19T16:06:42.475Z,96927.09
2023-04-19T16:12:03.294Z,96934.53
2023-04-19T16:17:24.288Z,96923.78
2023-04-19T16:22:45.033Z,96920.88
2023-04-19T16:28:06.071Z,96922.91
2023-04-19T16:33:27.024Z,96917.13
2023-04-19T16:38:47.686Z,96924.84
2023-04-19T16:44:08.393Z,96924.50
2023-04-19T16:49:29.070Z,96929.91
2023-04-19T16:54:49.689Z,96917.91
2023-04-19T17:00:11.059Z,96914.25
2023-04-19T17:05:31.879Z,96919.03
2023-04-19T17:10:52.653Z,96925.03
2023-04-19T17:16:13.541Z,96918.69
2023-04-19T17:21:34.157Z,96930.13
2023-04-19T17:26:54.998Z,96931.69
2023-04-19T17:32:15.625Z,96937.81
2023-04-19T17:37:36.727Z,96944.78
2023-04-19T17:42:57.547Z,96948.91
2023-04-19T17:48:18.363Z,96962.34
2023-04-19T17:53:39.091Z,96965.53
2023-04-19T17:59:03.263Z,96963.47
2023-04-19T18:04:24.520Z,96976.97
2023-04-19T18:09:45.472Z,96977.47
2023-04-19T18:15:07.160Z,96984.81
2023-04-19T18:20:28.190Z,96990.56
2023-04-19T18:25:55.494Z,96994.31
2023-04-19T18:31:16.528Z,96992.19
2023-04-19T18:36:37.420Z,97002.03
2023-04-19T18:41:58.376Z,97003.41
2023-04-19T18:47:19.398Z,97003.81
2023-04-19T18:52:40.382Z,96998.56
2023-04-19T18:58:01.730Z,97005.38
2023-04-19T19:08:49.913Z,97017.19
2023-04-19T19:14:11.410Z,97025.66
2023-04-19T19:19:32.073Z,97022.47
2023-04-19T19:24:52.719Z,97021.00
2023-04-19T19:30:14.103Z,97030.22
2023-04-19T19:35:35.017Z,97040.44
2023-04-19T19:41:30.973Z,97042.22
2023-04-19T19:46:39.754Z,97048.97
2023-04-19T19:52:02.441Z,97048.84
2023-04-19T20:08:13.816Z,97044.59
2023-04-19T20:13:34.532Z,97049.38
2023-04-19T20:18:57.776Z,97041.53
2023-04-19T20:24:18.522Z,97047.63
2023-04-19T20:29:39.337Z,97046.59
2023-04-19T20:35:00.360Z,97056.97
2023-04-19T20:40:23.011Z,97047.31
2023-04-19T20:45:43.605Z,97049.19
2023-04-19T20:51:04.361Z,97049.91
2023-04-19T20:56:25.441Z,97058.47
2023-04-19T21:01:46.365Z,97051.78
2023-04-19T21:07:07.132Z,97061.38
2023-04-19T21:12:27.891Z,97055.38
2023-04-19T21:17:48.704Z,97051.13
2023-04-19T21:23:10.036Z,97046.69
2023-04-19T21:28:34.236Z,97056.13
2023-04-19T21:33:55.286Z,97062.41
2023-04-19T21:39:16.551Z,97045.56
2023-04-19T21:44:37.505Z,97055.06
2023-04-19T21:49:58.218Z,97056.28
2023-04-19T21:55:19.059Z,97054.41
2023-04-19T22:00:39.663Z,97052.38
2023-04-19T22:06:02.038Z,97052.25
2023-04-19T22:11:23.213Z,97049.97
2023-04-19T22:16:44.095Z,97052.75
2023-04-19T22:22:04.733Z,97041.56
2023-04-19T22:27:25.924Z,97045.41
2023-04-19T22:32:46.604Z,97046.47
2023-04-19T22:38:07.574Z,97047.69
2023-04-19T22:43:28.662Z,97057.09
2023-04-19T22:48:49.930Z,97056.03
2023-04-19T22:54:10.979Z,97062.06
2023-04-19T22:59:31.513Z,97050.78
2023-04-19T23:04:52.364Z,97049.41
2023-04-19T23:10:13.488Z,97047.22
2023-04-19T23:15:34.619Z,97042.44
2023-04-19T23:20:55.933Z,97042.94
2023-04-19T23:26:16.617Z,97040.41
2023-04-19T23:31:37.365Z,97039.91
2023-04-19T23:36:58.241Z,97022.63
2023-04-19T23:42:18.979Z,97026.91
2023-04-19T23:47:39.672Z,97023.94
2023-04-19T23:53:00.453Z,97023.81
2023-04-19T23:58:21.233Z,97025.25
